Terminal Aerodrome Forecast
Issued by NWS North Platte, NE

Home | Current Version | Previous Version | Graphics & Text | Print | Product List | Glossary On
Versions: 1 2 3 4 5 6 7 8 9 10 11 12 13 14 15 16 17 18 19 20 21 22 23 24 25 26 27 28 29
013
FTUS43 KLBF 110426 AAC
TAFVTN
TAF AMD
KVTN 110426Z 1104/1124 02010KT P6SM OVC010
      TEMPO 1104/1108 5SM BR OVC008
     FM110800 VRB06KT P6SM OVC008
     FM111500 17007KT P6SM OVC012
     FM111800 21010KT P6SM SCT025 BKN120
     FM112000 27010KT P6SM SCT120=

USA.gov is the U.S. government's official web portal to all federal, state and local government web resources and services.